Time;durP1;ratioP1;P1;durP2;ratioP2;P2;SDS_P1;SDS_P2;PMS_P1;PMS_P2;Temp;Humidity;BMP_temperature;BMP_pressure;BME280_temperature;BME280_humidity;BME280_pressure;Samples;Min_cycle;Max_cycle;Signal;HPM_P1;HPM_P2
2021/12/15 00:00:03;;;;;;;;;;;3.30;99.90;;;;;;4954378;28;19969;-78
2021/12/15 00:02:39;;;;;;;;;;;3.30;99.90;;;;;;4967079;28;19926;-78
2021/12/15 00:05:08;;;;;;;;;;;3.30;99.90;;;;;;4970461;28;19926;-77
2021/12/15 00:07:35;;;;;;;;;;;3.30;99.90;;;;;;4957208;28;19926;-77
2021/12/15 00:10:02;;;;;;;;;;;3.30;99.90;;;;;;4973085;28;20635;-77
2021/12/15 00:12:30;;;;;;;;;;;3.30;99.90;;;;;;4953693;28;19930;-78
2021/12/15 00:14:57;;;;;;;;;;;3.30;99.90;;;;;;4969847;28;19926;-78
2021/12/15 00:17:24;;;;;;;;;;;3.30;99.90;;;;;;4967111;28;20423;-77
2021/12/15 00:19:51;;;;;;;;;;;3.30;99.90;;;;;;4973463;28;20448;-80
2021/12/15 00:22:18;;;;;;;;;;;3.30;99.90;;;;;;4971682;28;19936;-80
2021/12/15 00:24:45;;;;;;;;;;;3.30;99.90;;;;;;4967898;28;19926;-77
2021/12/15 00:27:12;;;;;;;;;;;3.30;99.90;;;;;;4974511;28;19933;-78
2021/12/15 00:29:40;;;;;;;;;;;3.30;99.90;;;;;;4963429;28;19926;-77
2021/12/15 00:32:08;;;;;;;;;;;3.30;99.90;;;;;;4972845;28;19934;-77
2021/12/15 00:34:38;;;;;;;;;;;3.30;99.90;;;;;;4962365;28;19933;-77
2021/12/15 00:37:05;;;;;;;;;;;3.30;99.90;;;;;;4962933;28;19926;-77
2021/12/15 00:39:32;;;;;;;;;;;3.30;99.90;;;;;;4955311;28;19957;-78
2021/12/15 00:42:00;;;;;;;;;;;3.30;99.90;;;;;;4970141;28;19937;-77
2021/12/15 00:44:27;;;;;;;;;;;3.30;99.90;;;;;;4956591;28;19934;-77
2021/12/15 00:46:56;;;;;;;;;;;3.30;99.90;;;;;;4954069;28;19926;-77
2021/12/15 00:49:23;;;;;;;;;;;3.30;99.90;;;;;;4956779;28;19930;-77
2021/12/15 00:51:50;;;;;;;;;;;3.30;99.90;;;;;;4969526;28;19957;-78
2021/12/15 00:54:18;;;;;;;;;;;3.30;99.90;;;;;;4970428;28;20447;-77
2021/12/15 00:56:46;;;;;;;;;;;3.30;99.90;;;;;;4960236;28;19933;-77
2021/12/15 00:59:13;;;;;;;;;;;3.30;99.90;;;;;;4952164;28;19956;-77
2021/12/15 01:01:40;;;;;;;;;;;3.30;99.90;;;;;;4967627;28;19977;-77
2021/12/15 01:04:09;;;;;;;;;;;3.30;99.90;;;;;;4954693;28;19926;-77
2021/12/15 01:06:37;;;;;;;;;;;3.30;99.90;;;;;;4957566;28;19930;-77
2021/12/15 01:09:06;;;;;;;;;;;3.30;99.90;;;;;;4957778;28;19933;-77
2021/12/15 01:11:50;;;;;;;;;;;3.30;99.90;;;;;;4964626;28;19934;-77
2021/12/15 01:14:34;;;;;;;;;;;3.30;99.90;;;;;;4952440;28;19981;-77
2021/12/15 01:19:52;;;;;;;;;;;3.30;99.90;;;;;;4968539;28;20359;-77
2021/12/15 01:22:25;;;;;;;;;;;3.30;99.90;;;;;;4947750;28;19927;-77
2021/12/15 01:24:53;;;;;;;;;;;3.30;99.90;;;;;;4963574;28;20016;-77
2021/12/15 01:27:20;;;;;;;;;;;3.30;99.90;;;;;;4956413;28;19931;-77
2021/12/15 01:29:47;;;;;;;;;;;3.30;99.90;;;;;;4956184;28;20385;-77
2021/12/15 01:32:14;;;;;;;;;;;3.30;99.90;;;;;;4951577;28;19926;-77
2021/12/15 01:34:41;;;;;;;;;;;3.30;99.90;;;;;;4972588;28;19930;-77
2021/12/15 01:37:12;;;;;;;;;;;3.30;99.90;;;;;;4952060;28;19926;-77
2021/12/15 01:39:39;;;;;;;;;;;3.30;99.90;;;;;;4958779;28;19930;-77
2021/12/15 01:42:06;;;;;;;;;;;3.30;99.90;;;;;;4949341;28;20452;-77
2021/12/15 01:47:18;;;;;;;;;;;3.30;99.90;;;;;;4969813;28;19922;-77
2021/12/15 01:49:47;;;;;;;;;;;3.30;99.90;;;;;;4963164;28;19926;-78
2021/12/15 01:52:17;;;;;;;;;;;3.30;99.90;;;;;;4972953;28;19926;-77
2021/12/15 01:54:45;;;;;;;;;;;3.30;99.90;;;;;;4968582;28;19926;-77
2021/12/15 01:57:14;;;;;;;;;;;3.30;99.90;;;;;;4960084;28;19962;-78
2021/12/15 01:59:41;;;;;;;;;;;3.30;99.90;;;;;;4956712;28;20316;-77
2021/12/15 02:02:08;;;;;;;;;;;3.30;99.90;;;;;;4952467;28;19930;-77
2021/12/15 02:04:36;;;;;;;;;;;3.30;99.90;;;;;;4970135;28;20347;-77
2021/12/15 02:07:05;;;;;;;;;;;3.30;99.90;;;;;;4962410;28;19934;-77
2021/12/15 02:10:01;;;;;;;;;;;3.30;99.90;;;;;;4956230;28;19930;-78
2021/12/15 02:12:32;;;;;;;;;;;3.30;99.90;;;;;;4972274;28;19974;-77
2021/12/15 02:14:59;;;;;;;;;;;3.30;99.90;;;;;;4970930;28;19937;-77
2021/12/15 02:17:26;;;;;;;;;;;3.30;99.90;;;;;;4954217;28;20336;-77
2021/12/15 02:19:53;;;;;;;;;;;3.30;99.90;;;;;;4958924;28;19933;-79
2021/12/15 02:22:22;;;;;;;;;;;3.30;99.90;;;;;;4950527;28;19926;-78
2021/12/15 02:24:51;;;;;;;;;;;3.30;99.90;;;;;;4956832;28;19926;-77
2021/12/15 02:27:19;;;;;;;;;;;3.20;99.90;;;;;;4954346;28;19953;-77
2021/12/15 02:29:49;;;;;;;;;;;3.30;99.90;;;;;;4964053;28;19926;-77
2021/12/15 02:32:24;;;;;;;;;;;3.30;99.90;;;;;;4963288;28;20061;-78
2021/12/15 02:37:14;;;;;;;;;;;3.30;99.90;;;;;;4953151;28;20331;-77
2021/12/15 02:37:55;;;;;;;;;;;3.30;99.90;;;;;;4957909;28;19934;-77
2021/12/15 02:40:23;;;;;;;;;;;3.20;99.90;;;;;;4978122;28;19964;-77
2021/12/15 02:42:50;;;;;;;;;;;3.30;99.90;;;;;;4960410;28;19988;-77
2021/12/15 02:45:19;;;;;;;;;;;3.30;99.90;;;;;;4959770;28;19934;-77
2021/12/15 02:47:47;;;;;;;;;;;3.30;99.90;;;;;;4958007;28;19926;-77
2021/12/15 02:50:15;;;;;;;;;;;3.30;99.90;;;;;;4974208;28;19926;-79
2021/12/15 02:52:43;;;;;;;;;;;3.30;99.90;;;;;;4951393;28;20553;-79
2021/12/15 02:55:12;;;;;;;;;;;3.30;99.90;;;;;;4970359;28;19926;-80
2021/12/15 02:57:39;;;;;;;;;;;3.30;99.90;;;;;;4973088;28;19942;-79
2021/12/15 03:00:16;;;;;;;;;;;3.30;99.90;;;;;;4958037;28;19965;-79
2021/12/15 03:05:43;;;;;;;;;;;3.20;99.90;;;;;;4967326;28;20388;-80
2021/12/15 03:08:14;;;;;;;;;;;3.30;99.90;;;;;;4953715;28;19926;-79
2021/12/15 03:16:13;;;;;;;;;;;3.30;99.90;;;;;;4951786;28;19930;-79
2021/12/15 03:18:40;;;;;;;;;;;3.30;99.90;;;;;;4957447;28;19926;-79
2021/12/15 03:21:09;;;;;;;;;;;3.30;99.90;;;;;;4976207;28;19964;-79
2021/12/15 03:23:40;;;;;;;;;;;3.30;99.90;;;;;;4967653;28;19926;-80
2021/12/15 03:26:11;;;;;;;;;;;3.30;99.90;;;;;;4976058;28;19967;-79
2021/12/15 03:34:14;;;;;;;;;;;3.30;99.90;;;;;;4971767;28;19930;-80
2021/12/15 03:37:04;;;;;;;;;;;3.30;99.90;;;;;;4955904;28;20372;-80
2021/12/15 03:39:33;;;;;;;;;;;3.30;99.90;;;;;;4968185;28;20316;-79
2021/12/15 03:42:06;;;;;;;;;;;3.30;99.90;;;;;;4974701;28;19926;-79
2021/12/15 03:44:35;;;;;;;;;;;3.30;99.90;;;;;;4944678;28;19930;-80
2021/12/15 03:47:02;;;;;;;;;;;3.30;99.90;;;;;;4971256;28;19937;-79
2021/12/15 03:49:29;;;;;;;;;;;3.30;99.90;;;;;;4961580;28;19942;-79
2021/12/15 03:51:56;;;;;;;;;;;3.30;99.90;;;;;;4979377;28;19933;-79
2021/12/15 03:54:23;;;;;;;;;;;3.30;99.90;;;;;;4961419;28;19937;-79
2021/12/15 03:56:50;;;;;;;;;;;3.30;99.90;;;;;;4971569;28;19938;-79
2021/12/15 03:59:19;;;;;;;;;;;3.30;99.90;;;;;;4956315;28;19926;-80
2021/12/15 04:01:47;;;;;;;;;;;3.30;99.90;;;;;;4959465;28;19932;-79
2021/12/15 04:04:14;;;;;;;;;;;3.30;99.90;;;;;;4955593;28;19941;-77
2021/12/15 04:06:41;;;;;;;;;;;3.30;99.90;;;;;;4971548;28;19929;-79
2021/12/15 04:09:11;;;;;;;;;;;3.30;99.90;;;;;;4955574;28;19926;-79
2021/12/15 04:11:39;;;;;;;;;;;3.30;99.90;;;;;;4956042;28;20401;-79
2021/12/15 04:14:09;;;;;;;;;;;3.30;99.90;;;;;;4954730;28;19996;-82
2021/12/15 04:16:46;;;;;;;;;;;3.30;99.90;;;;;;4963946;28;19985;-79
2021/12/15 04:19:14;;;;;;;;;;;3.30;99.90;;;;;;4966330;28;20468;-79
2021/12/15 04:21:42;;;;;;;;;;;3.30;99.90;;;;;;4969663;28;20524;-79
2021/12/15 04:24:12;;;;;;;;;;;3.30;99.90;;;;;;4953457;28;19961;-79
2021/12/15 04:26:39;;;;;;;;;;;3.30;99.90;;;;;;4974724;28;19934;-79
2021/12/15 04:29:06;;;;;;;;;;;3.30;99.90;;;;;;4956831;28;19926;-79
2021/12/15 04:31:35;;;;;;;;;;;3.30;99.90;;;;;;4969604;28;19926;-79
2021/12/15 04:34:05;;;;;;;;;;;3.30;99.90;;;;;;4976147;28;19926;-79
2021/12/15 04:36:34;;;;;;;;;;;3.30;99.90;;;;;;4968552;28;19930;-79
2021/12/15 04:39:02;;;;;;;;;;;3.30;99.90;;;;;;4953639;28;20396;-79
2021/12/15 04:41:29;;;;;;;;;;;3.30;99.90;;;;;;4955566;28;19926;-79
2021/12/15 04:43:58;;;;;;;;;;;3.30;99.90;;;;;;4965933;28;19926;-79
2021/12/15 04:46:26;;;;;;;;;;;3.30;99.90;;;;;;4949662;28;20459;-81
2021/12/15 04:48:54;;;;;;;;;;;3.30;99.90;;;;;;4960473;28;19934;-80
2021/12/15 04:51:22;;;;;;;;;;;3.30;99.90;;;;;;4950401;28;19937;-80
2021/12/15 04:53:49;;;;;;;;;;;3.30;99.90;;;;;;4961174;28;19938;-79
2021/12/15 04:56:16;;;;;;;;;;;3.30;99.90;;;;;;4944577;28;19969;-80
2021/12/15 04:58:43;;;;;;;;;;;3.30;99.90;;;;;;4952125;28;19926;-79
2021/12/15 05:01:11;;;;;;;;;;;3.30;99.90;;;;;;4961357;28;20002;-79
2021/12/15 05:03:39;;;;;;;;;;;3.30;99.90;;;;;;4966256;28;19952;-79
2021/12/15 05:06:06;;;;;;;;;;;3.30;99.90;;;;;;4961486;28;19933;-79
2021/12/15 05:08:35;;;;;;;;;;;3.30;99.90;;;;;;4972622;28;20365;-79
2021/12/15 05:11:05;;;;;;;;;;;3.30;99.90;;;;;;4952088;28;20278;-80
2021/12/15 05:13:34;;;;;;;;;;;3.30;99.90;;;;;;4965707;28;19940;-80
2021/12/15 05:16:02;;;;;;;;;;;3.30;99.90;;;;;;4954100;28;20020;-79
2021/12/15 05:18:29;;;;;;;;;;;3.30;99.90;;;;;;4954499;28;20810;-79
2021/12/15 05:20:58;;;;;;;;;;;3.30;99.90;;;;;;4957913;28;19926;-81
2021/12/15 05:23:29;;;;;;;;;;;3.30;99.90;;;;;;4960024;28;19930;-80
2021/12/15 05:25:57;;;;;;;;;;;3.30;99.90;;;;;;4966587;28;19972;-80
2021/12/15 05:28:24;;;;;;;;;;;3.30;99.90;;;;;;4947896;28;19926;-79
2021/12/15 05:30:51;;;;;;;;;;;3.30;99.90;;;;;;4970100;28;20017;-80
2021/12/15 05:33:18;;;;;;;;;;;3.30;99.90;;;;;;4968188;28;19926;-80
2021/12/15 05:35:45;;;;;;;;;;;3.30;99.90;;;;;;4958904;28;20312;-80
2021/12/15 05:38:13;;;;;;;;;;;3.30;99.90;;;;;;4953176;28;20336;-79
2021/12/15 05:40:40;;;;;;;;;;;3.30;99.90;;;;;;4963274;28;19937;-80
2021/12/15 05:43:08;;;;;;;;;;;3.30;99.90;;;;;;4955179;28;19926;-80
2021/12/15 05:45:37;;;;;;;;;;;3.30;99.90;;;;;;4967399;28;19926;-79
2021/12/15 05:48:08;;;;;;;;;;;3.30;99.90;;;;;;4974303;28;19930;-81
2021/12/15 05:50:36;;;;;;;;;;;3.30;99.90;;;;;;4958435;28;19926;-79
2021/12/15 05:53:04;;;;;;;;;;;3.30;99.90;;;;;;4950730;28;19973;-79
2021/12/15 05:55:31;;;;;;;;;;;3.30;99.90;;;;;;4972913;28;19930;-78
2021/12/15 05:57:58;;;;;;;;;;;3.30;99.90;;;;;;4957069;28;19930;-80
2021/12/15 06:00:29;;;;;;;;;;;3.30;99.90;;;;;;4966009;28;19930;-79
2021/12/15 06:02:57;;;;;;;;;;;3.30;99.90;;;;;;4959805;28;20563;-78
2021/12/15 06:05:24;;;;;;;;;;;3.30;99.90;;;;;;4961214;28;19938;-79
2021/12/15 06:07:51;;;;;;;;;;;3.30;99.90;;;;;;4947508;28;19934;-79
2021/12/15 06:10:19;;;;;;;;;;;3.30;99.90;;;;;;4969713;28;20024;-79
2021/12/15 06:12:48;;;;;;;;;;;3.30;99.90;;;;;;4957874;28;19933;-78
2021/12/15 06:15:20;;;;;;;;;;;3.40;99.90;;;;;;4971638;28;19926;-79
2021/12/15 06:17:49;;;;;;;;;;;3.40;99.90;;;;;;4965684;28;19930;-79
2021/12/15 06:20:16;;;;;;;;;;;3.40;99.90;;;;;;4957106;28;20295;-79
2021/12/15 06:22:45;;;;;;;;;;;3.40;99.90;;;;;;4968229;28;19927;-78
2021/12/15 06:25:12;;;;;;;;;;;3.40;99.90;;;;;;4958260;28;19969;-78
2021/12/15 06:27:40;;;;;;;;;;;3.40;99.90;;;;;;4955535;28;20021;-78
2021/12/15 06:30:08;;;;;;;;;;;3.40;99.90;;;;;;4969984;28;19933;-79
2021/12/15 06:32:35;;;;;;;;;;;3.40;99.90;;;;;;4968180;28;19933;-79
2021/12/15 06:35:05;;;;;;;;;;;3.40;99.90;;;;;;4951239;28;19926;-79
2021/12/15 06:37:31;;;;;;;;;;;3.40;99.90;;;;;;4950711;28;20387;-79
2021/12/15 06:39:58;;;;;;;;;;;3.30;99.90;;;;;;4954802;28;19930;-78
2021/12/15 06:42:25;;;;;;;;;;;3.40;99.90;;;;;;4960525;28;20014;-79
2021/12/15 06:44:52;;;;;;;;;;;3.40;99.90;;;;;;4968953;28;19926;-79
2021/12/15 06:47:51;;;;;;;;;;;3.30;99.90;;;;;;4970402;28;19954;-79
2021/12/15 06:58:35;;;;;;;;;;;3.30;99.90;;;;;;4967444;28;20029;-79
2021/12/15 07:01:03;;;;;;;;;;;3.40;99.90;;;;;;4973049;28;20053;-79
2021/12/15 07:03:30;;;;;;;;;;;3.40;99.90;;;;;;4957601;28;19932;-78
2021/12/15 07:05:59;;;;;;;;;;;3.40;99.90;;;;;;4947823;28;20710;-79
2021/12/15 07:08:28;;;;;;;;;;;3.40;99.90;;;;;;4970093;28;19933;-79
2021/12/15 07:10:56;;;;;;;;;;;3.40;99.90;;;;;;4968908;28;20384;-79
2021/12/15 07:13:25;;;;;;;;;;;3.40;99.90;;;;;;4956982;28;19930;-79
2021/12/15 07:15:59;;;;;;;;;;;3.40;99.90;;;;;;4966215;28;19926;-79
2021/12/15 07:18:37;;;;;;;;;;;3.40;99.90;;;;;;4970555;28;19931;-79
2021/12/15 07:21:08;;;;;;;;;;;3.40;99.90;;;;;;4948995;28;19930;-78
2021/12/15 07:23:36;;;;;;;;;;;3.30;99.90;;;;;;4966775;28;19981;-79
2021/12/15 07:26:03;;;;;;;;;;;3.40;99.90;;;;;;4955872;28;19944;-79
2021/12/15 07:28:30;;;;;;;;;;;3.40;99.90;;;;;;4949196;28;20629;-79
2021/12/15 07:30:57;;;;;;;;;;;3.40;99.90;;;;;;4967737;28;19926;-79
2021/12/15 07:33:27;;;;;;;;;;;3.40;99.90;;;;;;4961468;28;20024;-79
2021/12/15 07:35:54;;;;;;;;;;;3.40;99.90;;;;;;4971274;28;20199;-79
2021/12/15 07:38:22;;;;;;;;;;;3.40;99.90;;;;;;4969845;28;19926;-79
2021/12/15 07:40:55;;;;;;;;;;;3.40;99.90;;;;;;4956494;28;19932;-79
2021/12/15 07:43:25;;;;;;;;;;;3.40;99.90;;;;;;4970486;28;19926;-79
2021/12/15 07:45:54;;;;;;;;;;;3.40;99.90;;;;;;4963950;28;20401;-79
2021/12/15 07:48:23;;;;;;;;;;;3.40;99.90;;;;;;4954449;28;19926;-79
2021/12/15 07:50:52;;;;;;;;;;;3.40;99.90;;;;;;4961771;28;19930;-79
2021/12/15 07:53:20;;;;;;;;;;;3.40;99.90;;;;;;4970690;28;19933;-79
2021/12/15 07:55:49;;;;;;;;;;;3.40;99.90;;;;;;4956480;28;20423;-79
2021/12/15 07:58:18;;;;;;;;;;;3.40;99.90;;;;;;4965925;28;19968;-79
2021/12/15 08:00:45;;;;;;;;;;;3.40;99.90;;;;;;4957231;28;19934;-80
2021/12/15 08:03:13;;;;;;;;;;;3.40;99.90;;;;;;4953573;28;19926;-77
2021/12/15 08:05:40;;;;;;;;;;;3.40;99.90;;;;;;4943657;28;19926;-78
2021/12/15 08:08:07;;;;;;;;;;;3.40;99.90;;;;;;4963632;28;19932;-77
2021/12/15 08:10:35;;;;;;;;;;;3.40;99.90;;;;;;4945131;28;19934;-77
2021/12/15 08:13:07;;;;;;;;;;;3.40;99.90;;;;;;4953628;28;19934;-78
2021/12/15 08:15:33;;;;;;;;;;;3.40;99.90;;;;;;4961100;28;20099;-78
2021/12/15 08:18:00;;;;;;;;;;;3.40;99.90;;;;;;4957531;28;19966;-77
2021/12/15 08:20:31;;;;;;;;;;;3.40;99.90;;;;;;4938589;28;20548;-78
2021/12/15 08:22:58;;;;;;;;;;;3.40;99.90;;;;;;4966101;28;19991;-77
2021/12/15 08:25:26;;;;;;;;;;;3.40;99.90;;;;;;4970216;28;20466;-77
2021/12/15 08:27:55;;;;;;;;;;;3.40;99.90;;;;;;4943238;28;20277;-77
2021/12/15 08:30:25;;;;;;;;;;;3.40;99.90;;;;;;4953381;28;19969;-77
2021/12/15 08:32:54;;;;;;;;;;;3.40;99.90;;;;;;4975484;28;20400;-77
2021/12/15 08:35:23;;;;;;;;;;;3.40;99.90;;;;;;4953532;28;20304;-77
2021/12/15 08:37:51;;;;;;;;;;;3.40;99.90;;;;;;4964482;28;19934;-77
2021/12/15 08:42:46;;;;;;;;;;;3.40;99.90;;;;;;4983672;28;19926;-77
2021/12/15 08:45:14;;;;;;;;;;;3.40;99.90;;;;;;4975763;28;19949;-77
2021/12/15 08:47:42;;;;;;;;;;;3.40;99.90;;;;;;4958138;28;19936;-78
2021/12/15 08:50:11;;;;;;;;;;;3.40;99.90;;;;;;4947547;28;19926;-77
2021/12/15 08:52:38;;;;;;;;;;;3.40;99.90;;;;;;4962812;28;19933;-77
2021/12/15 08:55:06;;;;;;;;;;;3.40;99.90;;;;;;4970486;28;19926;-78
2021/12/15 08:57:33;;;;;;;;;;;3.40;99.90;;;;;;4952515;28;20470;-78
2021/12/15 09:00:00;;;;;;;;;;;3.40;99.90;;;;;;4969348;28;19929;-78
2021/12/15 09:02:27;;;;;;;;;;;3.40;99.90;;;;;;4961744;28;20021;-77
2021/12/15 09:04:55;;;;;;;;;;;3.40;99.90;;;;;;4967073;28;19958;-77
2021/12/15 09:07:22;;;;;;;;;;;3.40;99.90;;;;;;4962734;28;19982;-77
2021/12/15 09:09:49;;;;;;;;;;;3.40;99.90;;;;;;4969005;28;19934;-77
2021/12/15 09:12:19;;;;;;;;;;;3.40;99.90;;;;;;4953920;28;19926;-77
2021/12/15 09:14:46;;;;;;;;;;;3.40;99.90;;;;;;4956242;28;20402;-78
2021/12/15 09:17:13;;;;;;;;;;;3.40;99.90;;;;;;4978764;28;20440;-77
2021/12/15 09:19:40;;;;;;;;;;;3.40;99.90;;;;;;4964723;28;19933;-78
2021/12/15 09:22:08;;;;;;;;;;;3.40;99.90;;;;;;4950295;28;19926;-78
2021/12/15 09:24:35;;;;;;;;;;;3.40;99.90;;;;;;4967272;28;20000;-78
2021/12/15 09:27:06;;;;;;;;;;;3.40;99.90;;;;;;4955324;28;19955;-77
2021/12/15 09:29:33;;;;;;;;;;;3.40;99.90;;;;;;4965703;28;19933;-77
2021/12/15 09:32:00;;;;;;;;;;;3.40;99.90;;;;;;4947192;28;19930;-78
2021/12/15 09:34:30;;;;;;;;;;;3.40;99.90;;;;;;4955970;28;19965;-77
2021/12/15 09:36:57;;;;;;;;;;;3.40;99.90;;;;;;4963101;28;19930;-77
2021/12/15 09:39:25;;;;;;;;;;;3.50;99.90;;;;;;4965140;28;19926;-78
2021/12/15 09:41:52;;;;;;;;;;;3.50;99.90;;;;;;4957907;28;19925;-78
2021/12/15 09:44:23;;;;;;;;;;;3.50;99.90;;;;;;4965490;28;19926;-78
2021/12/15 10:03:29;;;;;;;;;;;3.50;99.90;;;;;;4965993;28;19922;-79
2021/12/15 10:06:05;;;;;;;;;;;3.50;99.90;;;;;;4966275;28;19934;-77
2021/12/15 10:11:44;;;;;;;;;;;3.50;99.90;;;;;;4921629;28;19929;-77
2021/12/15 10:19:41;;;;;;;;;;;3.50;99.90;;;;;;4969239;28;20076;-76
2021/12/15 10:22:11;;;;;;;;;;;3.50;99.90;;;;;;4950472;28;19926;-77
2021/12/15 10:24:45;;;;;;;;;;;3.50;99.90;;;;;;4971117;28;20479;-77
2021/12/15 10:27:15;;;;;;;;;;;3.50;99.90;;;;;;4951219;28;20365;-77
2021/12/15 10:29:57;;;;;;;;;;;3.60;99.90;;;;;;4952794;28;20459;-77
2021/12/15 10:32:28;;;;;;;;;;;3.50;99.90;;;;;;4963111;28;20388;-77
2021/12/15 10:34:59;;;;;;;;;;;3.50;99.90;;;;;;4963693;28;19936;-77
2021/12/15 10:37:28;;;;;;;;;;;3.60;99.90;;;;;;4972000;28;20392;-77
2021/12/15 10:40:08;;;;;;;;;;;3.50;99.90;;;;;;4970145;28;20406;-78
2021/12/15 10:42:39;;;;;;;;;;;3.60;99.90;;;;;;4972395;28;19934;-77
2021/12/15 10:45:09;;;;;;;;;;;3.60;99.90;;;;;;4970880;28;20017;-77
2021/12/15 10:47:40;;;;;;;;;;;3.60;99.90;;;;;;4969734;28;20012;-78
2021/12/15 10:50:12;;;;;;;;;;;3.60;99.90;;;;;;4949364;28;19934;-77
2021/12/15 10:52:49;;;;;;;;;;;3.60;99.90;;;;;;4963052;28;19976;-77
2021/12/15 10:55:16;;;;;;;;;;;3.70;99.90;;;;;;4967490;28;19973;-77
2021/12/15 10:57:45;;;;;;;;;;;3.70;99.90;;;;;;4952418;28;19930;-77
2021/12/15 11:00:13;;;;;;;;;;;3.70;99.90;;;;;;4973440;28;19930;-77
2021/12/15 11:02:41;;;;;;;;;;;3.60;99.90;;;;;;4971703;28;20316;-78
2021/12/15 11:05:10;;;;;;;;;;;3.70;99.90;;;;;;4968731;28;19980;-79
2021/12/15 11:07:39;;;;;;;;;;;3.60;99.90;;;;;;4975858;28;20029;-77
2021/12/15 11:10:08;;;;;;;;;;;3.70;99.90;;;;;;4970051;28;19930;-77
2021/12/15 11:12:35;;;;;;;;;;;3.70;99.90;;;;;;4956739;28;20316;-78
2021/12/15 11:15:06;;;;;;;;;;;3.70;99.90;;;;;;4966593;28;19930;-79
2021/12/15 11:17:37;;;;;;;;;;;3.70;99.90;;;;;;4952039;28;20006;-77
2021/12/15 11:20:07;;;;;;;;;;;3.70;99.90;;;;;;4965297;28;20277;-77
2021/12/15 11:22:47;;;;;;;;;;;3.70;99.90;;;;;;4964456;28;20533;-77
2021/12/15 11:25:19;;;;;;;;;;;3.70;99.90;;;;;;4971364;28;19941;-77
2021/12/15 11:27:47;;;;;;;;;;;3.70;99.90;;;;;;4961083;28;19934;-77
2021/12/15 11:30:20;;;;;;;;;;;3.70;99.90;;;;;;4963515;28;19989;-77
2021/12/15 11:32:48;;;;;;;;;;;3.70;99.90;;;;;;4969020;28;19926;-78
2021/12/15 11:35:18;;;;;;;;;;;3.70;99.90;;;;;;4953219;28;19932;-78
2021/12/15 11:37:51;;;;;;;;;;;3.70;99.90;;;;;;4952696;28;19926;-78
2021/12/15 11:40:26;;;;;;;;;;;3.70;99.90;;;;;;4967814;28;19926;-77
2021/12/15 11:42:53;;;;;;;;;;;3.70;99.90;;;;;;4953314;28;19930;-77
2021/12/15 11:45:29;;;;;;;;;;;3.70;99.90;;;;;;4957989;28;20455;-78
2021/12/15 11:48:21;;;;;;;;;;;3.70;99.90;;;;;;4969035;28;20059;-77
2021/12/15 11:50:49;;;;;;;;;;;3.70;99.90;;;;;;4970918;28;20336;-78
2021/12/15 11:53:35;;;;;;;;;;;3.70;99.90;;;;;;4953283;28;19981;-78
2021/12/15 11:56:37;;;;;;;;;;;3.70;99.90;;;;;;4967957;28;19965;-78
2021/12/15 11:59:15;;;;;;;;;;;3.70;99.90;;;;;;4921505;29;19942;-77
2021/12/15 12:01:47;;;;;;;;;;;3.70;99.90;;;;;;4919213;29;19949;-77
2021/12/15 12:04:17;;;;;;;;;;;3.70;99.90;;;;;;4949226;28;19934;-77
2021/12/15 12:06:45;;;;;;;;;;;3.80;99.90;;;;;;4972991;28;19932;-77
2021/12/15 12:09:21;;;;;;;;;;;3.80;99.90;;;;;;4945385;28;19934;-79
2021/12/15 12:11:58;;;;;;;;;;;3.80;99.90;;;;;;4959201;28;19933;-78
2021/12/15 12:22:34;;;;;;;;;;;3.80;99.90;;;;;;5827231;23;19973;-80
2021/12/15 12:25:04;;;;;;;;;;;3.80;99.90;;;;;;4987505;28;19933;-81
2021/12/15 12:27:32;;;;;;;;;;;3.80;99.90;;;;;;4970292;28;20370;-81
2021/12/15 12:30:05;;;;;;;;;;;3.80;99.90;;;;;;4982882;28;19926;-80
2021/12/15 12:32:36;;;;;;;;;;;3.80;99.90;;;;;;4985824;28;19926;-80
2021/12/15 12:35:05;;;;;;;;;;;3.80;99.90;;;;;;4977694;28;19933;-80
2021/12/15 12:37:36;;;;;;;;;;;3.80;99.90;;;;;;4985346;28;19942;-80
2021/12/15 12:40:16;;;;;;;;;;;3.80;99.90;;;;;;4996337;28;19949;-80
2021/12/15 12:42:45;;;;;;;;;;;3.80;99.90;;;;;;4995171;28;19926;-80
2021/12/15 12:45:18;;;;;;;;;;;3.80;99.90;;;;;;4976339;28;20024;-81
2021/12/15 12:48:05;;;;;;;;;;;3.80;99.90;;;;;;4991868;28;19933;-81
2021/12/15 12:59:37;;;;;;;;;;;3.90;99.90;;;;;;4967190;28;19932;-80
2021/12/15 13:02:18;;;;;;;;;;;3.80;99.90;;;;;;4971474;28;19926;-80
2021/12/15 13:04:46;;;;;;;;;;;3.90;99.90;;;;;;4982030;28;20459;-80
2021/12/15 13:41:39;;;;;;;;;;;4.00;99.90;;;;;;4988857;28;19933;-81
2021/12/15 13:44:17;;;;;;;;;;;4.00;99.90;;;;;;4970966;28;19958;-81
2021/12/15 13:46:47;;;;;;;;;;;4.00;99.90;;;;;;4940392;29;19961;-81
2021/12/15 13:49:19;;;;;;;;;;;3.90;99.90;;;;;;4954881;29;19927;-81
2021/12/15 13:51:54;;;;;;;;;;;3.90;99.90;;;;;;4945094;28;20017;-81
2021/12/15 13:54:40;;;;;;;;;;;3.90;99.90;;;;;;4954693;28;19926;-81
2021/12/15 13:57:18;;;;;;;;;;;3.90;99.90;;;;;;4945791;28;20394;-80
2021/12/15 13:59:46;;;;;;;;;;;3.90;99.90;;;;;;4937768;29;19930;-81
2021/12/15 14:02:20;;;;;;;;;;;3.90;99.90;;;;;;4934418;29;19933;-80
2021/12/15 14:04:51;;;;;;;;;;;3.90;99.90;;;;;;4956828;28;19926;-81
2021/12/15 14:07:44;;;;;;;;;;;3.90;99.90;;;;;;4951391;28;19926;-81
2021/12/15 14:10:42;;;;;;;;;;;3.90;99.90;;;;;;4939244;29;20444;-81
2021/12/15 14:13:12;;;;;;;;;;;3.90;99.90;;;;;;4919214;29;19927;-81
2021/12/15 14:15:52;;;;;;;;;;;4.00;99.90;;;;;;4943230;29;19930;-81
2021/12/15 14:18:25;;;;;;;;;;;3.90;99.90;;;;;;4962239;28;20305;-81
2021/12/15 14:21:03;;;;;;;;;;;4.00;99.90;;;;;;4941969;29;19927;-81
2021/12/15 14:23:37;;;;;;;;;;;3.90;99.90;;;;;;4952085;29;19982;-81
2021/12/15 14:26:11;;;;;;;;;;;3.90;99.90;;;;;;4949815;29;19927;-81
2021/12/15 14:28:54;;;;;;;;;;;3.90;99.90;;;;;;4938675;29;19927;-81
2021/12/15 14:31:32;;;;;;;;;;;3.90;99.90;;;;;;4956463;29;19933;-81
2021/12/15 14:34:03;;;;;;;;;;;3.90;99.90;;;;;;4957206;28;19969;-81
2021/12/15 14:36:37;;;;;;;;;;;3.90;99.90;;;;;;4936048;29;20353;-81
2021/12/15 14:39:12;;;;;;;;;;;3.90;99.90;;;;;;4962568;28;19926;-81
2021/12/15 14:41:42;;;;;;;;;;;3.90;99.90;;;;;;4941789;29;19941;-81
2021/12/15 14:44:12;;;;;;;;;;;3.90;99.90;;;;;;4950830;28;19932;-81
2021/12/15 14:46:44;;;;;;;;;;;3.90;99.90;;;;;;4941551;29;20297;-81
2021/12/15 14:49:21;;;;;;;;;;;3.90;99.90;;;;;;4957382;28;20353;-81
2021/12/15 14:51:55;;;;;;;;;;;3.90;99.90;;;;;;4957210;29;19931;-81
2021/12/15 14:54:30;;;;;;;;;;;3.90;99.90;;;;;;4943816;29;19939;-81
2021/12/15 14:57:02;;;;;;;;;;;3.90;99.90;;;;;;4958349;29;19933;-81
2021/12/15 14:59:46;;;;;;;;;;;3.90;99.90;;;;;;4952529;29;19927;-81
2021/12/15 15:02:17;;;;;;;;;;;3.90;99.90;;;;;;4938429;29;20331;-81
2021/12/15 15:04:51;;;;;;;;;;;3.90;99.90;;;;;;4955453;28;20304;-81
2021/12/15 15:07:22;;;;;;;;;;;3.90;99.90;;;;;;4943109;29;19927;-81
2021/12/15 15:09:54;;;;;;;;;;;3.90;99.90;;;;;;4957521;29;19930;-81
2021/12/15 15:12:24;;;;;;;;;;;3.90;99.90;;;;;;4940535;29;19927;-80
2021/12/15 15:14:55;;;;;;;;;;;3.90;99.90;;;;;;4951301;29;19933;-81
2021/12/15 15:17:31;;;;;;;;;;;3.90;99.90;;;;;;4960367;28;19993;-81
2021/12/15 15:20:01;;;;;;;;;;;3.90;99.90;;;;;;4956646;29;19958;-81
2021/12/15 15:22:34;;;;;;;;;;;3.90;99.90;;;;;;4957699;29;20029;-80
2021/12/15 15:25:06;;;;;;;;;;;3.90;99.90;;;;;;4943307;29;19934;-80
2021/12/15 15:27:41;;;;;;;;;;;3.90;99.90;;;;;;4964477;28;19977;-80
2021/12/15 15:30:19;;;;;;;;;;;3.90;99.90;;;;;;4953740;29;19980;-80
2021/12/15 15:32:57;;;;;;;;;;;3.90;99.90;;;;;;4937277;28;20378;-80
2021/12/15 15:35:34;;;;;;;;;;;3.90;99.90;;;;;;4959076;28;19933;-80
2021/12/15 15:38:09;;;;;;;;;;;3.90;99.90;;;;;;4938526;29;20333;-80
2021/12/15 15:40:38;;;;;;;;;;;3.90;99.90;;;;;;4953155;28;19930;-81
2021/12/15 15:43:09;;;;;;;;;;;3.90;99.90;;;;;;4929015;28;20509;-80
2021/12/15 15:45:39;;;;;;;;;;;4.00;99.90;;;;;;4928763;28;20015;-79
2021/12/15 15:48:07;;;;;;;;;;;3.90;99.90;;;;;;4947028;28;20382;-79
2021/12/15 15:50:35;;;;;;;;;;;4.00;99.90;;;;;;4947837;28;20400;-79
2021/12/15 15:53:04;;;;;;;;;;;4.00;99.90;;;;;;4957363;28;19930;-80
2021/12/15 15:55:39;;;;;;;;;;;3.90;99.90;;;;;;4952566;28;19926;-80
2021/12/15 15:58:10;;;;;;;;;;;3.90;99.90;;;;;;4946487;28;19927;-79
2021/12/15 16:00:43;;;;;;;;;;;3.90;99.90;;;;;;4934650;28;20009;-79
2021/12/15 16:03:13;;;;;;;;;;;3.90;99.90;;;;;;4949210;28;20329;-79
2021/12/15 16:05:44;;;;;;;;;;;3.90;99.90;;;;;;4938414;28;19944;-79
2021/12/15 16:08:18;;;;;;;;;;;3.90;99.90;;;;;;4940337;28;19966;-79
2021/12/15 16:10:52;;;;;;;;;;;3.90;99.90;;;;;;4946429;28;19926;-79
2021/12/15 16:13:25;;;;;;;;;;;3.90;99.90;;;;;;4953367;28;19926;-80
2021/12/15 16:16:01;;;;;;;;;;;3.90;99.90;;;;;;4931082;28;20155;-79
2021/12/15 16:18:33;;;;;;;;;;;3.90;99.90;;;;;;4943979;28;20453;-78
2021/12/15 16:23:43;;;;;;;;;;;3.90;99.90;;;;;;4941988;28;20397;-80
2021/12/15 16:26:12;;;;;;;;;;;3.90;99.90;;;;;;4947525;28;19927;-80
2021/12/15 16:28:40;;;;;;;;;;;4.00;99.90;;;;;;4946202;28;19931;-80
2021/12/15 16:31:12;;;;;;;;;;;4.00;99.90;;;;;;4941244;28;20028;-79
2021/12/15 16:33:41;;;;;;;;;;;3.90;99.90;;;;;;4948638;28;20294;-79
2021/12/15 16:36:09;;;;;;;;;;;4.00;99.90;;;;;;4927324;29;19927;-80
2021/12/15 16:38:42;;;;;;;;;;;4.00;99.90;;;;;;4950306;28;19926;-80